KAUG 220402Z AUTO 31013G16KT 4SM -SN OVC037 M16/M20 A2992 RMK AO2 P0000 T11561200